El Granada, CA

10:20 AM PDT on October 01, 2014 (GMT -0700)
Near Pillar Point Harbor | Change Station
CLOSE
Current Station
Personal Weather Station
Location: Half Moon Bay, CA
Elevation: 15 m
Nearby Weather Stations
Active Advisory: Heat Advisory Active Notice: Public Information Statement

Elev 15 m 37.51 °N, 122.49 °W | Updated 6 seconds ago

Clear
Clear
24.7 °C
Feels Like 25 °C
N
4.8
Wind Variable Wind from East
Gusts 6.4 km/h

Today
High -- | Low -- °C
--% Chance of Precip.
Yesterday
High -- | Low -- °C
Precip. -- mm
7:05 AM 6:52 PM
Waxing Crescent, 49% visible
Pressure 1013 hPa
Visibility 14.5 kilometers
Clouds Clear
Heat Index 25 °C
Dew Point 7 °C
Humidity 32%
Rainfall 0 mm
Snow Depth 2 in , 1 in , 0 in
UV 4 out of 12
Pollen 3.60 out of 12
Air Quality Not available.
Flu Activity Not available.
METAR KHAF 011715Z AUTO 02003KT 9SM CLR 24/05 A2992 RMK AO2

More Conditions Fewer Conditions

Pressure 1013 hPa
Visibility 14.5 kilometers
Clouds Clear
Heat Index 25 °C
Dew Point 7 °C
Humidity 32%
Rainfall 0 mm
Snow Depth 2 in , 1 in , 0 in
UV 4 out of 12
Pollen 3.60 out of 12
Air Quality Not available.
Flu Activity Not available.
METAR KHAF 011715Z AUTO 02003KT 9SM CLR 24/05 A2992 RMK AO2

More Conditions Fewer Conditions

10-Day Weather Forecast

Almanac

Astronomy

Oct. 01, 2014 Rise Set
Actual Time 7:05 AM PDT 6:52 PM PDT
Civil Twilight 6:39 AM PDT 7:18 PM PDT
Nautical Twilight 6:09 AM PDT 7:49 PM PDT
Astronomical Twilight 5:38 AM PDT 8:19 PM PDT
Moon 2:05 PM PDT No Moon Set
Length of Visible Light 12h 39m
Length of Day
11h 47m
Tomorrow will be 2m 22s shorter.
Waxing Crescent, 49% of the Moon is Illuminated
Today
Waxing Crescent
Oct 1
First Quarter
Oct 8
Full
Oct 15
Last Quarter
Oct 23
New

Today's Extremes

State Highs State Lows

Community

WunderPhotos

Upload Photos

1,757,987 photos uploaded!

WunderBlogs® & News

By Dr. Jeff Masters
Director of Meteorology, Weather Underground
By Kari Strenfel
Meteorologist, Weather Underground
By Christopher C. Burt
Weather Historian, Weather Underground
October 1, 2014
October 1, 2014
October 1, 2014

Nearby

Snow Depth

Station Depth Elevation
Summit Meadow 2 in 9122 ft
Rubicon #2 1 in 7500 ft
Crowder Flat 0 in 5100 ft
Forestdale Creek 0 in 8029 ft
Hagan's Meadow 0 in 8000 ft

Earthquake Activity

City Distance Mag. Time & Date
East Foothills, California 61 kilometers 2.6 3:34 PM PDT
2014-09-30
South Dos Palos, California 174 kilometers 2.7 3:08 PM PDT
2014-09-30
South Dos Palos, California 173 kilometers 2.5 9:18 PM PDT
2014-09-29
American Canyon, California 76 kilometers 2.5 12:17 AM PDT
2014-09-29
Minimum magnitude displayed is 2.5.

Coastal Water Temperatures

Place Temperature
Point Reyes, CA 15.0 °C
San Francisco, CA 18.3 °C
Richmond, CA 19.4 °C

Nearby Weather Stations